Time;durP1;ratioP1;P1;durP2;ratioP2;P2;SDS_P1;SDS_P2;PMS_P1;PMS_P2;Temp;Humidity;BMP_temperature;BMP_pressure;BME280_temperature;BME280_humidity;BME280_pressure;Samples;Min_cycle;Max_cycle;Signal;HPM_P1;HPM_P2
2021/07/02 00:01:14;;;;;;;3.47;3.37;;;21.50;37.60;;;;;;4772240;30;20547;-85
2021/07/02 00:03:43;;;;;;;3.67;3.47;;;21.50;38.20;;;;;;4769779;30;20428;-84
2021/07/02 00:06:11;;;;;;;3.70;3.50;;;21.50;37.60;;;;;;4771242;30;20500;-85
2021/07/02 00:08:37;;;;;;;3.50;3.30;;;21.50;38.20;;;;;;4780686;30;20458;-84
2021/07/02 00:11:05;;;;;;;3.20;3.10;;;21.50;37.50;;;;;;4769915;30;20919;-85
2021/07/02 00:13:33;;;;;;;3.87;3.67;;;21.40;37.40;;;;;;4771084;30;20186;-84
2021/07/02 00:16:01;;;;;;;3.70;3.47;;;21.40;37.50;;;;;;4769988;30;20476;-85
2021/07/02 00:18:27;;;;;;;3.60;3.40;;;21.50;37.60;;;;;;4769664;30;20468;-85
2021/07/02 00:20:53;;;;;;;3.70;3.50;;;21.50;37.50;;;;;;4768794;30;20439;-85
2021/07/02 00:23:18;;;;;;;3.30;3.10;;;21.40;37.50;;;;;;4770089;30;20190;-85
2021/07/02 00:25:47;;;;;;;3.83;3.63;;;21.40;37.50;;;;;;4769495;30;20270;-85
2021/07/02 00:28:12;;;;;;;3.50;3.30;;;21.40;37.50;;;;;;4769446;30;20225;-85
2021/07/02 00:30:38;;;;;;;3.53;3.33;;;21.50;37.60;;;;;;4769706;30;20424;-85
2021/07/02 00:33:07;;;;;;;3.60;3.40;;;21.50;37.60;;;;;;4769349;30;20186;-85
2021/07/02 00:35:32;;;;;;;3.83;3.63;;;21.40;37.50;;;;;;4767850;30;20229;-85
2021/07/02 00:37:58;;;;;;;3.30;3.10;;;21.40;37.60;;;;;;4769592;30;20886;-84
2021/07/02 00:40:23;;;;;;;3.40;3.20;;;21.40;37.50;;;;;;4767815;30;20186;-85
2021/07/02 00:42:51;;;;;;;3.70;3.50;;;21.40;37.60;;;;;;4767408;30;20190;-84
2021/07/02 00:45:17;;;;;;;3.60;3.40;;;21.40;37.50;;;;;;4768085;30;20209;-84
2021/07/02 00:47:43;;;;;;;3.53;3.40;;;21.40;37.50;;;;;;4767797;30;20455;-84
2021/07/02 00:50:10;;;;;;;3.70;3.50;;;21.40;37.60;;;;;;4769139;30;20183;-85
2021/07/02 00:52:36;;;;;;;3.90;3.70;;;21.40;37.60;;;;;;4768978;30;20528;-84
2021/07/02 00:55:02;;;;;;;4.00;3.80;;;21.40;37.50;;;;;;4769546;30;20436;-85
2021/07/02 00:57:29;;;;;;;4.83;3.70;;;21.40;37.60;;;;;;4769959;30;20478;-84
2021/07/02 00:59:54;;;;;;;3.50;3.30;;;21.40;37.60;;;;;;4771754;30;20424;-84
2021/07/02 01:02:20;;;;;;;3.30;3.20;;;21.40;37.60;;;;;;4770364;30;20426;-85
2021/07/02 01:04:49;;;;;;;3.60;3.40;;;21.40;37.60;;;;;;4771479;30;20178;-85
2021/07/02 01:07:15;;;;;;;4.00;3.80;;;21.40;37.60;;;;;;4772892;30;20198;-85
2021/07/02 01:09:45;;;;;;;3.57;3.37;;;21.40;37.60;;;;;;4773640;30;20432;-85
2021/07/02 01:12:13;;;;;;;3.70;3.50;;;21.40;37.60;;;;;;4772766;30;20511;-85
2021/07/02 01:14:42;;;;;;;4.10;3.90;;;21.40;37.60;;;;;;4772664;30;20427;-83
2021/07/02 01:17:08;;;;;;;3.87;3.67;;;21.40;37.60;;;;;;4771256;30;20440;-84
2021/07/02 01:19:34;;;;;;;3.90;3.70;;;21.40;37.70;;;;;;4772272;30;20427;-85
2021/07/02 01:22:02;;;;;;;3.70;3.50;;;21.40;37.60;;;;;;4770914;30;20662;-84
2021/07/02 01:24:28;;;;;;;3.57;3.37;;;21.40;37.60;;;;;;4770999;30;20190;-84
2021/07/02 01:26:54;;;;;;;3.90;3.70;;;21.40;37.60;;;;;;4771543;30;20445;-84
2021/07/02 01:29:23;;;;;;;3.50;3.30;;;21.40;37.60;;;;;;4772334;30;20248;-84
2021/07/02 01:31:49;;;;;;;4.00;3.80;;;21.40;37.60;;;;;;4771281;30;20869;-84
2021/07/02 01:34:15;;;;;;;3.93;3.70;;;21.40;37.60;;;;;;4772971;30;20424;-85
2021/07/02 01:36:41;;;;;;;3.50;3.30;;;21.40;37.60;;;;;;4770994;30;20245;-84
2021/07/02 01:39:11;;;;;;;3.10;3.00;;;21.40;37.60;;;;;;4771193;30;20575;-84
2021/07/02 01:41:37;;;;;;;3.70;3.50;;;21.40;37.60;;;;;;4771517;30;20186;-85
2021/07/02 01:44:03;;;;;;;3.67;3.47;;;21.40;37.60;;;;;;4771070;30;20433;-84
2021/07/02 01:46:29;;;;;;;4.07;3.87;;;21.40;37.60;;;;;;4771236;30;20213;-84
2021/07/02 01:48:54;;;;;;;3.80;3.60;;;21.40;37.60;;;;;;4773239;30;20202;-84
2021/07/02 01:51:23;;;;;;;3.63;3.50;;;21.40;37.60;;;;;;4772526;30;20630;-84
2021/07/02 01:53:51;;;;;;;3.63;3.43;;;21.40;37.70;;;;;;4771417;30;20191;-84
2021/07/02 01:56:20;;;;;;;3.40;3.20;;;21.40;37.70;;;;;;4771552;30;20601;-84
2021/07/02 01:58:49;;;;;;;3.47;3.27;;;21.40;37.70;;;;;;4772557;30;20507;-84
2021/07/02 02:01:15;;;;;;;3.50;3.30;;;21.40;37.70;;;;;;4771189;30;20446;-84
2021/07/02 02:03:44;;;;;;;4.17;3.97;;;21.40;37.70;;;;;;4771645;30;20923;-84
2021/07/02 02:06:11;;;;;;;3.40;3.20;;;21.40;37.70;;;;;;4770918;30;20240;-85
2021/07/02 02:08:37;;;;;;;3.60;3.40;;;21.40;37.70;;;;;;4773433;30;20473;-84
2021/07/02 02:11:03;;;;;;;3.90;3.70;;;21.40;37.70;;;;;;4772233;30;20470;-85
2021/07/02 02:13:31;;;;;;;3.80;3.60;;;21.40;37.70;;;;;;4773030;30;20190;-84
2021/07/02 02:16:03;;;;;;;3.80;3.60;;;21.40;37.70;;;;;;4773329;30;20259;-84
2021/07/02 02:18:34;;;;;;;3.33;3.23;;;21.40;37.70;;;;;;4772563;30;20687;-84
2021/07/02 02:21:02;;;;;;;3.60;3.40;;;21.40;37.70;;;;;;4771707;30;20431;-84
2021/07/02 02:23:28;;;;;;;3.40;3.20;;;21.40;37.70;;;;;;4773103;30;20492;-85
2021/07/02 02:25:57;;;;;;;3.23;3.13;;;21.40;37.70;;;;;;4772659;30;20493;-85
2021/07/02 02:28:25;;;;;;;3.80;3.60;;;21.40;37.70;;;;;;4774151;30;20279;-85
2021/07/02 02:30:54;;;;;;;4.10;3.90;;;21.40;37.70;;;;;;4770708;30;20434;-85
2021/07/02 02:33:19;;;;;;;3.83;3.63;;;21.40;37.60;;;;;;4770721;30;20428;-85
2021/07/02 02:35:48;;;;;;;3.80;3.60;;;21.40;37.70;;;;;;4770737;30;20542;-85
2021/07/02 02:38:14;;;;;;;4.17;3.90;;;21.30;37.60;;;;;;4771388;30;20217;-85
2021/07/02 02:40:41;;;;;;;3.47;3.30;;;21.40;37.70;;;;;;4769701;30;20428;-85
2021/07/02 02:43:10;;;;;;;3.73;3.53;;;21.40;37.70;;;;;;4769156;30;20547;-85
2021/07/02 02:45:39;;;;;;;3.83;3.63;;;21.40;37.70;;;;;;4769187;30;20459;-85
2021/07/02 02:48:05;;;;;;;3.90;3.70;;;21.40;37.70;;;;;;4770530;30;20456;-84
2021/07/02 02:50:31;;;;;;;3.90;3.70;;;21.30;37.60;;;;;;4771035;30;20424;-84
2021/07/02 02:52:57;;;;;;;3.77;3.47;;;21.40;37.70;;;;;;4770014;30;20463;-84
2021/07/02 02:55:25;;;;;;;3.07;2.97;;;21.40;37.70;;;;;;4771009;30;20206;-85
2021/07/02 02:57:53;;;;;;;3.50;3.30;;;21.40;37.70;;;;;;4770015;30;20591;-84
2021/07/02 03:00:19;;;;;;;3.63;3.43;;;21.40;37.70;;;;;;4772042;30;20534;-84
2021/07/02 03:02:47;;;;;;;3.30;3.13;;;21.40;37.70;;;;;;4770415;30;20463;-84
2021/07/02 03:05:13;;;;;;;3.23;3.10;;;21.40;37.70;;;;;;4769580;30;20183;-84
2021/07/02 03:07:41;;;;;;;3.30;3.10;;;21.40;37.70;;;;;;4769443;30;20432;-84
2021/07/02 03:10:08;;;;;;;3.80;3.60;;;21.40;37.70;;;;;;4770101;30;20374;-84
2021/07/02 03:12:33;;;;;;;3.60;3.40;;;21.40;37.70;;;;;;4770447;30;20586;-84
2021/07/02 03:14:59;;;;;;;3.80;3.60;;;21.40;37.70;;;;;;4770350;30;21131;-84
2021/07/02 03:17:25;;;;;;;3.70;3.50;;;21.30;37.70;;;;;;4768231;30;20579;-84
2021/07/02 03:19:50;;;;;;;3.73;3.53;;;21.30;37.70;;;;;;4768563;30;20190;-85
2021/07/02 03:22:21;;;;;;;3.57;3.37;;;21.30;37.70;;;;;;4770232;30;20661;-85
2021/07/02 03:24:51;;;;;;;3.97;3.77;;;21.30;37.60;;;;;;4768072;30;20654;-85
2021/07/02 03:27:16;;;;;;;3.70;3.50;;;21.30;37.60;;;;;;4768496;30;20463;-84
2021/07/02 03:29:45;;;;;;;3.33;3.23;;;21.30;37.70;;;;;;4768294;30;20432;-85
2021/07/02 03:32:14;;;;;;;3.50;3.30;;;21.40;37.70;;;;;;4768077;30;20189;-85
2021/07/02 03:34:47;;;;;;;3.40;3.30;;;21.30;37.60;;;;;;4767738;30;20462;-84
2021/07/02 03:37:25;;;;;;;3.33;3.20;;;21.30;37.60;;;;;;4767349;30;20451;-85
2021/07/02 03:39:51;;;;;;;3.10;3.00;;;21.30;37.60;;;;;;4769107;30;20435;-83
2021/07/02 03:42:24;;;;;;;3.60;3.40;;;21.30;37.70;;;;;;4769344;30;21093;-84
2021/07/02 03:45:00;;;;;;;;;;;;;;;;;;;;;
2021/07/02 03:47:26;;;;;;;3.60;3.40;;;21.30;37.70;;;;;;4769271;30;20952;-83
2021/07/02 03:49:57;;;;;;;3.50;3.40;;;21.30;37.60;;;;;;4768299;30;20508;-84
2021/07/02 03:52:22;;;;;;;3.70;3.50;;;21.30;37.60;;;;;;4768279;30;20281;-82
2021/07/02 03:54:50;;;;;;;3.97;3.77;;;21.30;37.60;;;;;;4768961;30;20503;-84
2021/07/02 03:57:21;;;;;;;3.83;3.63;;;21.30;37.60;;;;;;4768347;30;20206;-84
2021/07/02 03:59:52;;;;;;;3.93;3.73;;;21.30;37.70;;;;;;4767810;30;20792;-84
2021/07/02 04:02:21;;;;;;;3.70;3.50;;;21.30;37.70;;;;;;4767427;30;20420;-84
2021/07/02 04:04:47;;;;;;;3.47;3.37;;;21.30;37.70;;;;;;4767919;30;20432;-83
2021/07/02 04:07:16;;;;;;;3.67;3.50;;;21.30;37.60;;;;;;4768332;30;20478;-82
2021/07/02 04:10:25;;;;;;;4.40;4.20;;;21.30;37.60;;;;;;4767944;30;20428;-84
2021/07/02 04:12:51;;;;;;;3.20;3.10;;;21.30;37.70;;;;;;4795555;29;20999;-84
2021/07/02 04:15:32;;;;;;;3.83;3.63;;;21.30;37.70;;;;;;4768256;30;20502;-83
2021/07/02 04:18:00;;;;;;;3.97;3.77;;;21.30;37.70;;;;;;4766275;30;20252;-83
2021/07/02 04:20:57;;;;;;;3.83;3.63;;;21.30;37.70;;;;;;4766883;30;20431;-83
2021/07/02 04:23:55;;;;;;;3.40;3.30;;;21.30;37.70;;;;;;4767336;30;20434;-84
2021/07/02 04:26:46;;;;;;;3.93;3.73;;;21.30;37.70;;;;;;4783418;29;20589;-84
2021/07/02 04:29:13;;;;;;;3.60;3.43;;;21.30;37.70;;;;;;4772369;30;20424;-84
2021/07/02 04:31:41;;;;;;;3.87;3.67;;;21.30;37.70;;;;;;4774391;30;20444;-83
2021/07/02 04:35:04;;;;;;;3.53;3.33;;;21.30;37.70;;;;;;4774000;30;20439;-84
2021/07/02 04:37:30;;;;;;;4.10;3.90;;;21.30;37.70;;;;;;4783006;29;20499;-83
2021/07/02 04:39:55;;;;;;;3.60;3.40;;;21.30;37.80;;;;;;4772632;30;20435;-84
2021/07/02 04:42:24;;;;;;;3.03;2.93;;;21.30;37.70;;;;;;4772909;30;20193;-84
2021/07/02 04:45:16;;;;;;;3.70;3.50;;;21.30;37.70;;;;;;4772641;30;20193;-83
2021/07/02 04:47:47;;;;;;;3.40;3.20;;;21.30;37.70;;;;;;4773233;30;20452;-83
2021/07/02 04:50:41;;;;;;;;;;;;;;;;;;;;;
2021/07/02 07:49:06;;;;;;;7.00;6.40;;;21.20;35.70;;;;;;4785544;29;20506;-80
2021/07/02 07:55:49;;;;;;;11.83;7.10;;;21.20;35.70;;;;;;4791963;30;20490;-81
2021/07/02 07:59:19;;;;;;;7.43;6.53;;;21.20;35.70;;;;;;4774204;30;20507;-81
2021/07/02 08:02:53;;;;;;;8.13;6.33;;;21.20;35.70;;;;;;4735652;30;20429;-82
2021/07/02 08:16:02;;;;;;;6.63;6.13;;;21.20;35.30;;;;;;4672010;30;20483;-83
2021/07/02 08:18:54;;;;;;;6.60;6.20;;;21.20;35.20;;;;;;4687357;30;20488;-82
2021/07/02 08:22:03;;;;;;;6.20;5.70;;;21.20;35.30;;;;;;4724329;30;20422;-83
2021/07/02 08:25:21;;;;;;;7.37;6.60;;;21.20;35.40;;;;;;4725339;30;20448;-81
2021/07/02 08:31:18;;;;;;;7.50;7.00;;;21.20;35.30;;;;;;4792766;30;20511;-81
2021/07/02 08:33:47;;;;;;;7.63;7.13;;;21.20;35.30;;;;;;4756689;30;20431;-82
2021/07/02 08:36:16;;;;;;;9.50;7.70;;;21.20;35.20;;;;;;4775380;30;20483;-81
2021/07/02 08:38:47;;;;;;;7.20;6.67;;;21.20;35.20;;;;;;4792717;30;20467;-81
2021/07/02 08:42:32;;;;;;;6.87;6.27;;;21.20;35.20;;;;;;4789447;30;20962;-82
2021/07/02 08:49:12;;;;;;;6.90;6.40;;;21.20;36.00;;;;;;4781964;30;20430;-81
2021/07/02 08:58:57;;;;;;;7.10;6.67;;;21.20;35.20;;;;;;4741116;30;20553;-80
2021/07/02 09:02:19;;;;;;;6.83;6.33;;;21.20;35.00;;;;;;4710647;30;20422;-81
2021/07/02 09:05:38;;;;;;;7.20;6.60;;;21.20;35.00;;;;;;4740311;30;20941;-82
2021/07/02 09:08:25;;;;;;;6.63;6.23;;;21.20;35.00;;;;;;4752405;30;20436;-82
2021/07/02 09:11:11;;;;;;;6.50;6.00;;;21.20;35.00;;;;;;4764983;30;20443;-82
2021/07/02 09:17:24;;;;;;;6.43;5.87;;;21.20;34.90;;;;;;4775410;30;20423;-83
2021/07/02 09:24:24;;;;;;;6.70;6.30;;;21.20;34.80;;;;;;4737249;30;20460;-82
2021/07/02 09:27:59;;;;;;;6.70;6.20;;;21.20;34.80;;;;;;4720125;30;20505;-81
2021/07/02 09:38:49;;;;;;;6.93;6.43;;;21.20;34.70;;;;;;4668483;30;20492;-80
2021/07/02 09:52:35;;;;;;;7.13;6.63;;;21.20;34.60;;;;;;4698434;30;20466;-80
2021/07/02 11:13:15;;;;;;;6.93;6.43;;;21.30;34.60;;;;;;4754836;30;20417;-82
2021/07/02 12:07:38;;;;;;;7.10;6.70;;;21.30;34.10;;;;;;4718568;30;20453;-82
2021/07/02 12:14:58;;;;;;;6.73;6.33;;;21.30;34.50;;;;;;4734809;30;20940;-81
2021/07/02 12:18:04;;;;;;;6.57;6.17;;;21.30;34.40;;;;;;4729514;30;20493;-79
2021/07/02 12:25:22;;;;;;;7.60;7.00;;;21.30;34.50;;;;;;4699240;30;20555;-81
2021/07/02 12:34:54;;;;;;;7.50;7.00;;;21.30;34.60;;;;;;4649213;30;20489;-78
2021/07/02 12:38:28;;;;;;;7.60;7.00;;;21.30;33.70;;;;;;4652314;30;21147;-77
2021/07/02 12:41:42;;;;;;;7.27;6.73;;;21.30;32.80;;;;;;4647982;30;20454;-78
2021/07/02 12:44:28;;;;;;;7.60;6.90;;;21.30;32.40;;;;;;4668230;30;20439;-79
2021/07/02 12:47:41;;;;;;;6.80;6.30;;;21.40;32.30;;;;;;4735949;30;20448;-79
2021/07/02 12:51:35;;;;;;;8.13;7.40;;;21.40;32.80;;;;;;4749221;30;20450;-79
2021/07/02 12:58:38;;;;;;;7.53;6.83;;;21.40;32.50;;;;;;4772520;30;20403;-79
2021/07/02 13:04:03;;;;;;;8.93;7.83;;;21.40;31.10;;;;;;4771967;30;21017;-78
2021/07/02 13:07:18;;;;;;;8.47;7.67;;;21.40;31.20;;;;;;4742342;30;20448;-79
2021/07/02 13:14:31;;;;;;;8.33;7.53;;;21.40;31.70;;;;;;4771996;30;20431;-79
2021/07/02 13:27:51;;;;;;;9.30;7.70;;;21.50;32.60;;;;;;4737170;30;20647;-79
2021/07/02 13:31:17;;;;;;;8.13;7.23;;;21.50;32.60;;;;;;4736782;30;20430;-78
2021/07/02 13:34:49;;;;;;;8.43;7.63;;;21.50;32.70;;;;;;4737358;30;20430;-80
2021/07/02 13:45:10;;;;;;;8.30;7.50;;;21.50;33.00;;;;;;4651573;30;20589;-79
2021/07/02 13:55:21;;;;;;;8.17;7.40;;;21.60;33.40;;;;;;4667382;30;20459;-78
2021/07/02 14:15:23;;;;;;;7.70;7.07;;;21.60;33.60;;;;;;4666116;30;20480;-79
2021/07/02 14:22:20;;;;;;;8.13;7.40;;;21.60;33.70;;;;;;4727565;30;20884;-79
2021/07/02 14:32:51;;;;;;;7.83;7.13;;;21.60;33.80;;;;;;4734179;30;20425;-79
2021/07/02 14:36:25;;;;;;;7.53;7.00;;;21.60;33.90;;;;;;4742674;30;20469;-80
2021/07/02 14:42:51;;;;;;;7.40;6.90;;;21.70;34.00;;;;;;4732798;30;20462;-78
2021/07/02 14:46:09;;;;;;;8.43;7.37;;;21.60;33.90;;;;;;4703917;30;20475;-79
2021/07/02 14:49:44;;;;;;;7.20;6.60;;;21.60;32.00;;;;;;4663037;30;20444;-78
2021/07/02 14:52:26;;;;;;;7.50;6.90;;;21.60;31.50;;;;;;4667129;30;20437;-78
2021/07/02 14:55:38;;;;;;;7.73;7.13;;;21.60;32.20;;;;;;4665460;30;20954;-79
2021/07/02 15:03:04;;;;;;;7.43;6.83;;;21.60;32.70;;;;;;4669647;30;20510;-79
2021/07/02 15:06:29;;;;;;;6.93;6.40;;;21.60;31.70;;;;;;4631405;30;20825;-79
2021/07/02 15:09:43;;;;;;;7.90;7.40;;;21.60;31.20;;;;;;4678535;30;20463;-79
2021/07/02 15:12:50;;;;;;;8.10;7.60;;;21.60;31.80;;;;;;4753889;30;20445;-79
2021/07/02 15:16:09;;;;;;;7.67;7.17;;;21.60;31.90;;;;;;4758004;30;20822;-78
2021/07/02 15:19:47;;;;;;;7.70;7.20;;;21.60;32.40;;;;;;4782945;29;20504;-80
2021/07/02 15:26:14;;;;;;;7.60;7.00;;;21.60;31.50;;;;;;4699427;30;20482;-78
2021/07/02 15:43:07;;;;;;;7.27;6.63;;;21.60;32.30;;;;;;4769323;30;20446;-78
2021/07/02 15:46:16;;;;;;;8.17;7.63;;;21.60;32.70;;;;;;4716040;30;20519;-78
2021/07/02 15:56:53;;;;;;;7.37;6.87;;;21.60;31.70;;;;;;4770315;30;20431;-78
2021/07/02 15:59:49;;;;;;;7.40;6.80;;;21.60;32.50;;;;;;4763888;30;20479;-79
2021/07/02 16:16:25;;;;;;;7.70;7.10;;;21.60;32.30;;;;;;4733879;30;20474;-79
2021/07/02 16:18:56;;;;;;;8.33;7.53;;;21.60;31.70;;;;;;4705405;30;20497;-78
2021/07/02 16:22:04;;;;;;;7.70;7.20;;;21.60;31.80;;;;;;4719932;30;20516;-78
2021/07/02 16:24:53;;;;;;;7.57;6.87;;;21.70;32.00;;;;;;4735369;30;20502;-78
2021/07/02 16:27:19;;;;;;;7.97;7.40;;;21.60;32.00;;;;;;4757971;30;20448;-78
2021/07/02 16:30:15;;;;;;;7.43;6.80;;;21.60;30.90;;;;;;4776712;30;20932;-79
2021/07/02 16:32:49;;;;;;;7.93;7.37;;;21.60;31.20;;;;;;4766285;30;20938;-79
2021/07/02 16:35:58;;;;;;;7.17;6.67;;;21.60;31.80;;;;;;4759814;30;20497;-78
2021/07/02 16:42:05;;;;;;;7.80;7.20;;;21.60;32.30;;;;;;4775857;30;20648;-79
2021/07/02 16:45:22;;;;;;;7.07;6.57;;;21.60;32.30;;;;;;4791877;29;20455;-80
2021/07/02 16:55:17;;;;;;;8.80;7.53;;;21.60;32.00;;;;;;4685040;30;20447;-79
2021/07/02 16:58:15;;;;;;;6.97;6.57;;;21.60;30.30;;;;;;4676651;30;20432;-80
2021/07/02 17:00:49;;;;;;;7.43;6.93;;;21.60;29.70;;;;;;4668862;30;20690;-80
2021/07/02 17:06:30;;;;;;;7.50;6.93;;;21.60;31.30;;;;;;4667857;30;20464;-79
2021/07/02 17:12:33;;;;;;;7.17;6.67;;;21.60;31.20;;;;;;4773922;30;20438;-80
2021/07/02 17:15:45;;;;;;;7.40;6.80;;;21.60;31.20;;;;;;4758504;30;20440;-80
2021/07/02 17:22:14;;;;;;;7.00;6.50;;;21.60;31.70;;;;;;4774132;30;20427;-79
2021/07/02 17:25:29;;;;;;;6.77;6.17;;;21.60;31.80;;;;;;4759646;30;20784;-79
2021/07/02 17:39:03;;;;;;;6.47;6.07;;;21.60;31.20;;;;;;4701745;30;20482;-79
2021/07/02 17:41:31;;;;;;;7.00;6.50;;;21.60;31.60;;;;;;4690742;30;20454;-80
2021/07/02 17:44:15;;;;;;;6.47;6.07;;;21.60;31.80;;;;;;4700052;30;20946;-80
2021/07/02 17:46:40;;;;;;;6.23;5.73;;;21.60;32.00;;;;;;4688621;30;20493;-77
2021/07/02 17:49:41;;;;;;;6.67;6.27;;;21.50;31.70;;;;;;4746732;30;20617;-79
2021/07/02 17:53:15;;;;;;;7.43;6.93;;;21.60;32.00;;;;;;4742332;30;20189;-79
2021/07/02 17:55:45;;;;;;;6.07;5.67;;;21.60;31.90;;;;;;4770505;29;20464;-78
2021/07/02 17:58:13;;;;;;;6.60;6.20;;;21.60;32.60;;;;;;4784163;29;20436;-79
2021/07/02 18:00:59;;;;;;;7.40;6.80;;;21.60;31.90;;;;;;4774122;29;20485;-79
2021/07/02 18:03:53;;;;;;;6.77;6.30;;;21.60;32.00;;;;;;4782328;30;21169;-79
2021/07/02 18:06:42;;;;;;;6.40;6.00;;;21.60;32.10;;;;;;4722515;30;20648;-82
2021/07/02 18:09:22;;;;;;;6.63;6.10;;;21.60;31.20;;;;;;4770389;30;20424;-79
2021/07/02 18:15:24;;;;;;;8.27;7.57;;;21.60;31.80;;;;;;4765849;30;20416;-80
2021/07/02 18:28:55;;;;;;;7.33;6.80;;;21.60;31.40;;;;;;4702750;30;20515;-79
2021/07/02 18:32:01;;;;;;;7.70;7.20;;;21.60;31.20;;;;;;4703524;30;20447;-79
2021/07/02 18:41:58;;;;;;;7.97;7.30;;;21.60;31.90;;;;;;4651554;30;20494;-79
2021/07/02 18:48:03;;;;;;;7.40;6.80;;;21.60;31.70;;;;;;4661162;30;20512;-78
2021/07/02 19:58:32;;;;;;;9.70;8.90;;;21.40;33.70;;;;;;4729207;30;20437;-82
2021/07/02 20:18:09;;;;;;;9.60;8.80;;;21.40;34.20;;;;;;4754600;30;20428;-79
2021/07/02 20:21:40;;;;;;;10.17;8.00;;;21.40;34.30;;;;;;4747375;30;20455;-80
2021/07/02 20:24:47;;;;;;;8.53;7.73;;;21.40;34.30;;;;;;4763555;30;20435;-79
2021/07/02 20:27:44;;;;;;;9.33;8.00;;;21.40;34.30;;;;;;4772496;30;20999;-79
2021/07/02 20:30:44;;;;;;;8.27;7.57;;;21.50;34.60;;;;;;4771929;30;20940;-80
2021/07/02 20:33:40;;;;;;;9.07;8.47;;;21.50;34.50;;;;;;4772332;30;20511;-80
2021/07/02 20:36:50;;;;;;;8.13;7.43;;;21.50;34.60;;;;;;4794103;29;20467;-80
2021/07/02 20:39:41;;;;;;;9.00;8.20;;;21.50;34.50;;;;;;4755126;30;20475;-79
2021/07/02 20:50:42;;;;;;;9.60;8.60;;;21.50;34.60;;;;;;4716205;30;20467;-82
2021/07/02 20:57:18;;;;;;;8.80;8.10;;;21.50;34.50;;;;;;4663688;30;20540;-80
2021/07/02 21:07:24;;;;;;;7.97;7.43;;;21.50;34.80;;;;;;4645790;30;20496;-80
2021/07/02 21:10:52;;;;;;;8.70;7.90;;;21.50;34.80;;;;;;4646363;30;20528;-81
2021/07/02 21:17:43;;;;;;;8.50;7.70;;;21.50;34.90;;;;;;4637695;30;20501;-80
2021/07/02 21:30:55;;;;;;;8.03;7.37;;;21.40;34.90;;;;;;4657114;30;20515;-80
2021/07/02 21:34:22;;;;;;;8.00;7.40;;;21.40;34.90;;;;;;4681171;30;20806;-81
2021/07/02 21:37:47;;;;;;;7.40;6.83;;;21.40;34.90;;;;;;4691114;30;20459;-81
2021/07/02 21:51:34;;;;;;;7.10;6.60;;;21.40;35.00;;;;;;4686240;30;20877;-81
2021/07/02 21:55:09;;;;;;;8.30;7.60;;;21.40;35.00;;;;;;4652377;30;20426;-82
2021/07/02 22:09:32;;;;;;;8.07;7.47;;;21.40;35.10;;;;;;4755563;30;20475;-81
2021/07/02 22:13:30;;;;;;;7.30;6.80;;;21.40;35.10;;;;;;4719836;30;20494;-82
2021/07/02 22:17:26;;;;;;;6.83;6.33;;;21.40;35.10;;;;;;4685363;30;20463;-82
2021/07/02 22:24:21;;;;;;;7.13;6.57;;;21.40;35.20;;;;;;4757089;30;20420;-81
2021/07/02 22:31:21;;;;;;;7.80;7.20;;;21.40;35.20;;;;;;4707080;30;20991;-82
2021/07/02 22:34:28;;;;;;;7.20;6.70;;;21.40;35.20;;;;;;4772385;30;20932;-81
2021/07/02 22:55:31;;;;;;;6.83;6.33;;;21.30;35.20;;;;;;4667957;30;20432;-81
2021/07/02 23:05:55;;;;;;;7.30;6.50;;;21.30;35.30;;;;;;4567098;31;20504;-82
2021/07/02 23:19:36;;;;;;;7.23;6.73;;;21.30;35.30;;;;;;4566533;30;20905;-81
2021/07/02 23:27:09;;;;;;;7.20;6.70;;;21.30;35.30;;;;;;4674784;30;20508;-82
2021/07/02 23:30:18;;;;;;;6.60;6.10;;;21.30;35.40;;;;;;4729486;30;20793;-82
2021/07/02 23:40:29;;;;;;;7.03;6.53;;;21.30;35.40;;;;;;4757052;30;21385;-82
2021/07/02 23:43:25;;;;;;;6.63;6.17;;;21.30;35.40;;;;;;4756659;30;20416;-82
2021/07/02 23:46:55;;;;;;;5.83;5.53;;;21.30;35.40;;;;;;4740716;30;20445;-82
2021/07/02 23:50:19;;;;;;;6.43;6.03;;;21.30;35.40;;;;;;4789202;30;20448;-82
2021/07/02 23:53:34;;;;;;;6.63;6.13;;;21.30;35.40;;;;;;4756438;30;20436;-82
2021/07/02 23:56:30;;;;;;;6.40;5.80;;;21.30;35.40;;;;;;4737490;30;20448;-81
